sensor_id;sensor_type;location;lat;lon;timestamp;P1;durP1;ratioP1;P2;durP2;ratioP2
33644;SDS011;19986;48.190;16.366;2023-03-19T00:01:28;49.30;;;46.10;;
33644;SDS011;19986;48.190;16.366;2023-03-19T00:03:54;52.33;;;49.20;;
33644;SDS011;19986;48.190;16.366;2023-03-19T00:06:20;50.00;;;46.88;;
33644;SDS011;19986;48.190;16.366;2023-03-19T00:08:47;50.10;;;47.15;;
33644;SDS011;19986;48.190;16.366;2023-03-19T00:11:13;51.38;;;48.17;;
33644;SDS011;19986;48.190;16.366;2023-03-19T00:13:38;53.63;;;50.17;;
33644;SDS011;19986;48.190;16.366;2023-03-19T00:16:05;50.88;;;47.70;;
33644;SDS011;19986;48.190;16.366;2023-03-19T00:18:31;52.53;;;49.20;;
33644;SDS011;19986;48.190;16.366;2023-03-19T00:20:58;53.10;;;49.83;;
33644;SDS011;19986;48.190;16.366;2023-03-19T00:23:24;54.53;;;51.05;;
33644;SDS011;19986;48.190;16.366;2023-03-19T00:25:50;52.50;;;49.33;;
33644;SDS011;19986;48.190;16.366;2023-03-19T00:28:17;51.38;;;48.25;;
33644;SDS011;19986;48.190;16.366;2023-03-19T00:30:43;51.80;;;48.60;;
33644;SDS011;19986;48.190;16.366;2023-03-19T00:33:09;53.22;;;50.00;;
33644;SDS011;19986;48.190;16.366;2023-03-19T00:35:37;52.55;;;49.22;;
33644;SDS011;19986;48.190;16.366;2023-03-19T00:38:04;49.78;;;46.67;;
33644;SDS011;19986;48.190;16.366;2023-03-19T00:40:30;50.45;;;47.20;;
33644;SDS011;19986;48.190;16.366;2023-03-19T00:43:00;51.13;;;47.80;;
33644;SDS011;19986;48.190;16.366;2023-03-19T00:45:26;50.10;;;47.00;;
33644;SDS011;19986;48.190;16.366;2023-03-19T00:47:53;51.58;;;48.28;;
33644;SDS011;19986;48.190;16.366;2023-03-19T00:50:18;53.33;;;49.83;;
33644;SDS011;19986;48.190;16.366;2023-03-19T00:52:44;53.38;;;50.08;;
33644;SDS011;19986;48.190;16.366;2023-03-19T00:55:10;53.42;;;50.03;;
33644;SDS011;19986;48.190;16.366;2023-03-19T00:57:36;53.58;;;50.17;;
33644;SDS011;19986;48.190;16.366;2023-03-19T01:00:02;52.15;;;49.05;;
33644;SDS011;19986;48.190;16.366;2023-03-19T01:02:29;51.10;;;47.90;;
33644;SDS011;19986;48.190;16.366;2023-03-19T01:04:57;49.88;;;46.97;;
33644;SDS011;19986;48.190;16.366;2023-03-19T01:07:22;50.50;;;47.28;;
33644;SDS011;19986;48.190;16.366;2023-03-19T01:09:48;49.88;;;46.67;;
33644;SDS011;19986;48.190;16.366;2023-03-19T01:12:14;52.03;;;48.85;;
33644;SDS011;19986;48.190;16.366;2023-03-19T01:14:40;52.05;;;48.97;;
33644;SDS011;19986;48.190;16.366;2023-03-19T01:17:06;51.45;;;48.25;;
33644;SDS011;19986;48.190;16.366;2023-03-19T01:19:32;50.45;;;47.25;;
33644;SDS011;19986;48.190;16.366;2023-03-19T01:21:58;51.30;;;48.10;;
33644;SDS011;19986;48.190;16.366;2023-03-19T01:24:27;52.25;;;48.80;;
33644;SDS011;19986;48.190;16.366;2023-03-19T01:26:54;49.75;;;46.85;;
33644;SDS011;19986;48.190;16.366;2023-03-19T01:29:20;52.80;;;49.65;;
33644;SDS011;19986;48.190;16.366;2023-03-19T01:31:46;51.78;;;48.67;;
33644;SDS011;19986;48.190;16.366;2023-03-19T01:34:13;52.40;;;49.17;;
33644;SDS011;19986;48.190;16.366;2023-03-19T01:36:39;52.42;;;49.33;;
33644;SDS011;19986;48.190;16.366;2023-03-19T01:39:05;50.85;;;47.83;;
33644;SDS011;19986;48.190;16.366;2023-03-19T01:41:32;50.42;;;47.33;;
33644;SDS011;19986;48.190;16.366;2023-03-19T01:43:59;51.53;;;48.40;;
33644;SDS011;19986;48.190;16.366;2023-03-19T01:46:26;52.53;;;49.35;;
33644;SDS011;19986;48.190;16.366;2023-03-19T01:48:57;54.33;;;50.92;;
33644;SDS011;19986;48.190;16.366;2023-03-19T01:51:27;50.60;;;47.58;;
33644;SDS011;19986;48.190;16.366;2023-03-19T01:53:57;50.95;;;47.80;;
33644;SDS011;19986;48.190;16.366;2023-03-19T01:56:27;53.03;;;49.75;;
33644;SDS011;19986;48.190;16.366;2023-03-19T01:58:59;50.85;;;47.53;;
33644;SDS011;19986;48.190;16.366;2023-03-19T02:01:31;51.20;;;48.03;;
33644;SDS011;19986;48.190;16.366;2023-03-19T02:03:59;50.90;;;47.75;;
33644;SDS011;19986;48.190;16.366;2023-03-19T02:06:26;52.53;;;49.40;;
33644;SDS011;19986;48.190;16.366;2023-03-19T02:08:55;51.75;;;48.67;;
33644;SDS011;19986;48.190;16.366;2023-03-19T02:11:21;52.47;;;49.38;;
33644;SDS011;19986;48.190;16.366;2023-03-19T02:13:49;51.00;;;48.00;;
33644;SDS011;19986;48.190;16.366;2023-03-19T02:16:16;51.53;;;48.50;;
33644;SDS011;19986;48.190;16.366;2023-03-19T02:18:43;52.58;;;49.47;;
33644;SDS011;19986;48.190;16.366;2023-03-19T02:21:10;51.42;;;48.13;;
33644;SDS011;19986;48.190;16.366;2023-03-19T02:26:11;53.70;;;50.40;;
33644;SDS011;19986;48.190;16.366;2023-03-19T02:28:44;52.58;;;49.22;;
33644;SDS011;19986;48.190;16.366;2023-03-19T02:31:12;52.28;;;48.78;;
33644;SDS011;19986;48.190;16.366;2023-03-19T02:33:40;52.65;;;49.25;;
33644;SDS011;19986;48.190;16.366;2023-03-19T02:36:12;51.38;;;48.05;;
33644;SDS011;19986;48.190;16.366;2023-03-19T02:38:42;52.42;;;49.33;;
33644;SDS011;19986;48.190;16.366;2023-03-19T02:41:11;49.38;;;46.33;;
33644;SDS011;19986;48.190;16.366;2023-03-19T02:43:38;52.22;;;49.00;;
33644;SDS011;19986;48.190;16.366;2023-03-19T02:46:09;52.67;;;49.47;;
33644;SDS011;19986;48.190;16.366;2023-03-19T02:48:37;54.65;;;51.20;;
33644;SDS011;19986;48.190;16.366;2023-03-19T02:51:03;51.67;;;48.58;;
33644;SDS011;19986;48.190;16.366;2023-03-19T02:53:30;50.85;;;47.65;;
33644;SDS011;19986;48.190;16.366;2023-03-19T02:55:56;49.78;;;46.70;;
33644;SDS011;19986;48.190;16.366;2023-03-19T02:58:22;52.45;;;49.35;;
33644;SDS011;19986;48.190;16.366;2023-03-19T03:00:49;52.50;;;49.28;;
33644;SDS011;19986;48.190;16.366;2023-03-19T03:03:16;52.85;;;49.58;;
33644;SDS011;19986;48.190;16.366;2023-03-19T03:05:43;50.65;;;47.65;;
33644;SDS011;19986;48.190;16.366;2023-03-19T03:08:09;52.78;;;49.58;;
33644;SDS011;19986;48.190;16.366;2023-03-19T03:10:36;54.28;;;50.97;;
33644;SDS011;19986;48.190;16.366;2023-03-19T03:13:02;52.80;;;49.72;;
33644;SDS011;19986;48.190;16.366;2023-03-19T03:15:29;51.63;;;48.53;;
33644;SDS011;19986;48.190;16.366;2023-03-19T03:17:55;53.92;;;50.72;;
33644;SDS011;19986;48.190;16.366;2023-03-19T03:20:21;52.92;;;49.80;;
33644;SDS011;19986;48.190;16.366;2023-03-19T03:22:47;52.25;;;49.15;;
33644;SDS011;19986;48.190;16.366;2023-03-19T03:25:13;52.58;;;49.47;;
33644;SDS011;19986;48.190;16.366;2023-03-19T03:27:40;53.25;;;49.97;;
33644;SDS011;19986;48.190;16.366;2023-03-19T03:30:06;52.05;;;48.95;;
33644;SDS011;19986;48.190;16.366;2023-03-19T03:32:33;53.08;;;49.80;;
33644;SDS011;19986;48.190;16.366;2023-03-19T03:35:00;55.85;;;52.65;;
33644;SDS011;19986;48.190;16.366;2023-03-19T03:37:28;52.42;;;49.42;;
33644;SDS011;19986;48.190;16.366;2023-03-19T03:39:54;52.88;;;49.58;;
33644;SDS011;19986;48.190;16.366;2023-03-19T03:42:20;52.40;;;49.15;;
33644;SDS011;19986;48.190;16.366;2023-03-19T03:44:46;52.80;;;49.67;;
33644;SDS011;19986;48.190;16.366;2023-03-19T03:47:12;54.17;;;50.72;;
33644;SDS011;19986;48.190;16.366;2023-03-19T03:49:38;52.13;;;48.75;;
33644;SDS011;19986;48.190;16.366;2023-03-19T03:52:04;52.78;;;49.58;;
33644;SDS011;19986;48.190;16.366;2023-03-19T03:54:30;51.55;;;48.38;;
33644;SDS011;19986;48.190;16.366;2023-03-19T03:56:56;51.83;;;48.55;;
33644;SDS011;19986;48.190;16.366;2023-03-19T03:59:21;53.58;;;50.15;;
33644;SDS011;19986;48.190;16.366;2023-03-19T04:01:49;52.88;;;49.58;;
33644;SDS011;19986;48.190;16.366;2023-03-19T04:04:15;53.08;;;49.92;;
33644;SDS011;19986;48.190;16.366;2023-03-19T04:06:41;50.75;;;47.40;;
33644;SDS011;19986;48.190;16.366;2023-03-19T04:09:08;52.10;;;48.85;;
33644;SDS011;19986;48.190;16.366;2023-03-19T04:11:35;51.90;;;48.80;;
33644;SDS011;19986;48.190;16.366;2023-03-19T04:14:01;52.03;;;48.83;;
33644;SDS011;19986;48.190;16.366;2023-03-19T04:16:28;53.67;;;50.38;;
33644;SDS011;19986;48.190;16.366;2023-03-19T04:18:54;52.30;;;48.85;;
33644;SDS011;19986;48.190;16.366;2023-03-19T04:21:20;55.25;;;51.80;;
33644;SDS011;19986;48.190;16.366;2023-03-19T04:23:46;54.55;;;51.15;;
33644;SDS011;19986;48.190;16.366;2023-03-19T04:26:12;53.45;;;50.10;;
33644;SDS011;19986;48.190;16.366;2023-03-19T04:28:38;55.35;;;52.08;;
33644;SDS011;19986;48.190;16.366;2023-03-19T04:31:06;51.75;;;48.60;;
33644;SDS011;19986;48.190;16.366;2023-03-19T04:33:35;51.92;;;48.70;;
33644;SDS011;19986;48.190;16.366;2023-03-19T04:36:01;57.30;;;53.22;;
33644;SDS011;19986;48.190;16.366;2023-03-19T04:38:27;52.92;;;49.58;;
33644;SDS011;19986;48.190;16.366;2023-03-19T04:40:54;54.40;;;51.20;;
33644;SDS011;19986;48.190;16.366;2023-03-19T04:43:21;54.08;;;50.75;;
33644;SDS011;19986;48.190;16.366;2023-03-19T04:45:47;54.45;;;50.95;;
33644;SDS011;19986;48.190;16.366;2023-03-19T04:48:14;52.45;;;49.22;;
33644;SDS011;19986;48.190;16.366;2023-03-19T04:50:41;54.22;;;50.92;;
33644;SDS011;19986;48.190;16.366;2023-03-19T04:53:07;54.22;;;50.80;;
33644;SDS011;19986;48.190;16.366;2023-03-19T04:55:33;54.80;;;51.45;;
33644;SDS011;19986;48.190;16.366;2023-03-19T04:57:59;55.55;;;52.05;;
33644;SDS011;19986;48.190;16.366;2023-03-19T05:00:25;54.92;;;51.72;;
33644;SDS011;19986;48.190;16.366;2023-03-19T05:02:52;55.40;;;51.83;;
33644;SDS011;19986;48.190;16.366;2023-03-19T05:05:18;54.92;;;51.42;;
33644;SDS011;19986;48.190;16.366;2023-03-19T05:07:43;54.45;;;50.97;;
33644;SDS011;19986;48.190;16.366;2023-03-19T05:10:10;55.00;;;51.50;;
33644;SDS011;19986;48.190;16.366;2023-03-19T05:12:36;53.45;;;50.13;;
33644;SDS011;19986;48.190;16.366;2023-03-19T05:15:02;53.55;;;50.15;;
33644;SDS011;19986;48.190;16.366;2023-03-19T05:17:29;53.00;;;49.65;;
33644;SDS011;19986;48.190;16.366;2023-03-19T05:19:56;54.28;;;50.70;;
33644;SDS011;19986;48.190;16.366;2023-03-19T05:22:22;51.03;;;47.83;;
33644;SDS011;19986;48.190;16.366;2023-03-19T05:24:48;55.95;;;52.55;;
33644;SDS011;19986;48.190;16.366;2023-03-19T05:27:23;56.35;;;52.92;;
33644;SDS011;19986;48.190;16.366;2023-03-19T05:29:52;54.20;;;50.80;;
33644;SDS011;19986;48.190;16.366;2023-03-19T05:32:18;56.05;;;52.65;;
33644;SDS011;19986;48.190;16.366;2023-03-19T05:34:44;54.72;;;51.33;;
33644;SDS011;19986;48.190;16.366;2023-03-19T05:37:10;56.60;;;53.10;;
33644;SDS011;19986;48.190;16.366;2023-03-19T05:39:36;56.10;;;52.45;;
33644;SDS011;19986;48.190;16.366;2023-03-19T05:42:02;56.60;;;53.20;;
33644;SDS011;19986;48.190;16.366;2023-03-19T05:44:28;54.70;;;51.35;;
33644;SDS011;19986;48.190;16.366;2023-03-19T05:46:54;54.95;;;51.33;;
33644;SDS011;19986;48.190;16.366;2023-03-19T05:49:20;57.17;;;53.42;;
33644;SDS011;19986;48.190;16.366;2023-03-19T05:51:46;55.90;;;52.58;;
33644;SDS011;19986;48.190;16.366;2023-03-19T05:54:12;56.20;;;52.60;;
33644;SDS011;19986;48.190;16.366;2023-03-19T05:56:38;53.17;;;49.88;;
33644;SDS011;19986;48.190;16.366;2023-03-19T05:59:04;58.03;;;54.33;;
33644;SDS011;19986;48.190;16.366;2023-03-19T06:01:30;55.72;;;51.83;;
33644;SDS011;19986;48.190;16.366;2023-03-19T06:03:56;56.40;;;52.90;;
33644;SDS011;19986;48.190;16.366;2023-03-19T06:06:22;54.90;;;51.50;;
33644;SDS011;19986;48.190;16.366;2023-03-19T06:08:48;56.35;;;52.80;;
33644;SDS011;19986;48.190;16.366;2023-03-19T06:11:14;51.97;;;48.78;;
33644;SDS011;19986;48.190;16.366;2023-03-19T06:13:40;56.97;;;53.47;;
33644;SDS011;19986;48.190;16.366;2023-03-19T06:16:07;54.83;;;51.40;;
33644;SDS011;19986;48.190;16.366;2023-03-19T06:18:33;58.20;;;54.50;;
33644;SDS011;19986;48.190;16.366;2023-03-19T06:20:59;56.38;;;52.60;;
33644;SDS011;19986;48.190;16.366;2023-03-19T06:23:25;54.67;;;51.25;;
33644;SDS011;19986;48.190;16.366;2023-03-19T06:25:51;55.78;;;52.30;;
33644;SDS011;19986;48.190;16.366;2023-03-19T06:28:17;58.25;;;54.35;;
33644;SDS011;19986;48.190;16.366;2023-03-19T06:30:43;56.28;;;52.53;;
33644;SDS011;19986;48.190;16.366;2023-03-19T06:33:08;57.88;;;54.10;;
33644;SDS011;19986;48.190;16.366;2023-03-19T06:35:34;55.95;;;52.55;;
33644;SDS011;19986;48.190;16.366;2023-03-19T06:38:00;53.85;;;50.55;;
33644;SDS011;19986;48.190;16.366;2023-03-19T06:40:26;57.15;;;53.58;;
33644;SDS011;19986;48.190;16.366;2023-03-19T06:42:52;57.60;;;53.75;;
33644;SDS011;19986;48.190;16.366;2023-03-19T06:45:18;58.72;;;54.80;;
33644;SDS011;19986;48.190;16.366;2023-03-19T06:47:44;55.28;;;51.67;;
33644;SDS011;19986;48.190;16.366;2023-03-19T06:50:11;56.60;;;52.97;;
33644;SDS011;19986;48.190;16.366;2023-03-19T06:52:39;56.78;;;53.28;;
33644;SDS011;19986;48.190;16.366;2023-03-19T06:55:05;56.40;;;52.25;;
33644;SDS011;19986;48.190;16.366;2023-03-19T06:57:32;53.35;;;49.85;;
33644;SDS011;19986;48.190;16.366;2023-03-19T06:59:59;58.70;;;54.90;;
33644;SDS011;19986;48.190;16.366;2023-03-19T07:02:25;57.90;;;54.22;;
33644;SDS011;19986;48.190;16.366;2023-03-19T07:04:51;55.10;;;51.53;;
33644;SDS011;19986;48.190;16.366;2023-03-19T07:07:17;57.28;;;53.58;;
33644;SDS011;19986;48.190;16.366;2023-03-19T07:09:43;59.78;;;56.08;;
33644;SDS011;19986;48.190;16.366;2023-03-19T07:12:09;58.58;;;54.65;;
33644;SDS011;19986;48.190;16.366;2023-03-19T07:14:35;59.63;;;56.03;;
33644;SDS011;19986;48.190;16.366;2023-03-19T07:17:01;57.08;;;53.47;;
33644;SDS011;19986;48.190;16.366;2023-03-19T07:19:27;55.20;;;51.53;;
33644;SDS011;19986;48.190;16.366;2023-03-19T07:21:53;57.47;;;53.92;;
33644;SDS011;19986;48.190;16.366;2023-03-19T07:24:19;58.50;;;54.60;;
33644;SDS011;19986;48.190;16.366;2023-03-19T07:26:44;55.95;;;52.22;;
33644;SDS011;19986;48.190;16.366;2023-03-19T07:29:12;55.88;;;52.17;;
33644;SDS011;19986;48.190;16.366;2023-03-19T07:31:38;56.30;;;52.70;;
33644;SDS011;19986;48.190;16.366;2023-03-19T07:34:04;57.58;;;53.85;;
33644;SDS011;19986;48.190;16.366;2023-03-19T07:36:30;53.25;;;49.95;;
33644;SDS011;19986;48.190;16.366;2023-03-19T07:38:56;57.45;;;53.75;;
33644;SDS011;19986;48.190;16.366;2023-03-19T07:41:22;53.88;;;50.38;;
33644;SDS011;19986;48.190;16.366;2023-03-19T07:43:48;57.55;;;53.85;;
33644;SDS011;19986;48.190;16.366;2023-03-19T07:46:14;57.28;;;53.67;;
33644;SDS011;19986;48.190;16.366;2023-03-19T07:48:40;55.10;;;51.30;;
33644;SDS011;19986;48.190;16.366;2023-03-19T07:51:05;58.42;;;54.72;;
33644;SDS011;19986;48.190;16.366;2023-03-19T07:53:32;56.95;;;53.33;;
33644;SDS011;19986;48.190;16.366;2023-03-19T07:55:58;53.90;;;50.33;;
33644;SDS011;19986;48.190;16.366;2023-03-19T07:58:24;55.20;;;51.72;;
33644;SDS011;19986;48.190;16.366;2023-03-19T08:00:51;54.88;;;51.30;;
33644;SDS011;19986;48.190;16.366;2023-03-19T08:03:18;55.38;;;51.97;;
33644;SDS011;19986;48.190;16.366;2023-03-19T08:05:43;56.10;;;52.25;;
33644;SDS011;19986;48.190;16.366;2023-03-19T08:08:12;57.15;;;53.55;;
33644;SDS011;19986;48.190;16.366;2023-03-19T08:10:39;56.08;;;52.47;;
33644;SDS011;19986;48.190;16.366;2023-03-19T08:13:05;55.90;;;52.20;;
33644;SDS011;19986;48.190;16.366;2023-03-19T08:15:31;56.70;;;52.80;;
33644;SDS011;19986;48.190;16.366;2023-03-19T08:17:58;56.55;;;52.75;;
33644;SDS011;19986;48.190;16.366;2023-03-19T08:20:25;56.95;;;53.25;;
33644;SDS011;19986;48.190;16.366;2023-03-19T08:22:51;52.38;;;48.97;;
33644;SDS011;19986;48.190;16.366;2023-03-19T08:25:17;55.60;;;51.83;;
33644;SDS011;19986;48.190;16.366;2023-03-19T08:27:43;55.28;;;51.63;;
33644;SDS011;19986;48.190;16.366;2023-03-19T08:30:09;56.22;;;52.67;;
33644;SDS011;19986;48.190;16.366;2023-03-19T08:32:36;54.17;;;50.67;;
33644;SDS011;19986;48.190;16.366;2023-03-19T08:35:02;54.40;;;50.90;;
33644;SDS011;19986;48.190;16.366;2023-03-19T08:37:28;55.47;;;51.78;;
33644;SDS011;19986;48.190;16.366;2023-03-19T08:39:54;55.63;;;51.97;;
33644;SDS011;19986;48.190;16.366;2023-03-19T08:42:20;56.05;;;52.42;;
33644;SDS011;19986;48.190;16.366;2023-03-19T08:44:47;55.75;;;52.15;;
33644;SDS011;19986;48.190;16.366;2023-03-19T08:47:13;56.67;;;53.03;;
33644;SDS011;19986;48.190;16.366;2023-03-19T08:49:39;55.58;;;52.00;;
33644;SDS011;19986;48.190;16.366;2023-03-19T08:52:05;54.45;;;51.05;;
33644;SDS011;19986;48.190;16.366;2023-03-19T08:54:33;55.13;;;51.53;;
33644;SDS011;19986;48.190;16.366;2023-03-19T08:56:59;55.15;;;51.55;;
33644;SDS011;19986;48.190;16.366;2023-03-19T08:59:26;54.25;;;50.65;;
33644;SDS011;19986;48.190;16.366;2023-03-19T09:01:55;56.45;;;52.75;;
33644;SDS011;19986;48.190;16.366;2023-03-19T09:04:21;55.45;;;51.42;;
33644;SDS011;19986;48.190;16.366;2023-03-19T09:06:47;55.10;;;51.60;;
33644;SDS011;19986;48.190;16.366;2023-03-19T09:09:19;56.80;;;53.10;;
33644;SDS011;19986;48.190;16.366;2023-03-19T09:11:47;55.17;;;51.55;;
33644;SDS011;19986;48.190;16.366;2023-03-19T09:14:13;55.33;;;51.85;;
33644;SDS011;19986;48.190;16.366;2023-03-19T09:16:41;55.67;;;52.08;;
33644;SDS011;19986;48.190;16.366;2023-03-19T09:19:07;57.28;;;53.47;;
33644;SDS011;19986;48.190;16.366;2023-03-19T09:21:34;53.45;;;49.75;;
33644;SDS011;19986;48.190;16.366;2023-03-19T09:24:02;54.45;;;50.95;;
33644;SDS011;19986;48.190;16.366;2023-03-19T09:26:28;52.65;;;49.25;;
33644;SDS011;19986;48.190;16.366;2023-03-19T09:28:54;53.33;;;50.03;;
33644;SDS011;19986;48.190;16.366;2023-03-19T09:31:20;54.95;;;51.17;;
33644;SDS011;19986;48.190;16.366;2023-03-19T09:33:46;55.00;;;51.20;;
33644;SDS011;19986;48.190;16.366;2023-03-19T09:36:12;54.55;;;51.03;;
33644;SDS011;19986;48.190;16.366;2023-03-19T09:38:38;53.40;;;49.70;;
33644;SDS011;19986;48.190;16.366;2023-03-19T09:45:57;52.65;;;49.10;;
33644;SDS011;19986;48.190;16.366;2023-03-19T09:48:37;55.47;;;51.63;;
33644;SDS011;19986;48.190;16.366;2023-03-19T09:51:09;55.72;;;52.05;;
33644;SDS011;19986;48.190;16.366;2023-03-19T09:53:44;54.88;;;51.30;;
33644;SDS011;19986;48.190;16.366;2023-03-19T09:56:20;52.30;;;48.95;;
33644;SDS011;19986;48.190;16.366;2023-03-19T09:58:47;54.55;;;50.95;;
33644;SDS011;19986;48.190;16.366;2023-03-19T10:01:26;53.78;;;50.22;;
33644;SDS011;19986;48.190;16.366;2023-03-19T10:06:42;54.53;;;51.03;;
33644;SDS011;19986;48.190;16.366;2023-03-19T10:12:13;52.40;;;48.95;;
33644;SDS011;19986;48.190;16.366;2023-03-19T10:17:24;55.47;;;51.75;;
33644;SDS011;19986;48.190;16.366;2023-03-19T10:20:03;52.88;;;49.53;;
33644;SDS011;19986;48.190;16.366;2023-03-19T10:22:35;52.42;;;49.08;;
33644;SDS011;19986;48.190;16.366;2023-03-19T10:25:10;54.28;;;50.80;;
33644;SDS011;19986;48.190;16.366;2023-03-19T10:27:42;55.25;;;51.50;;
33644;SDS011;19986;48.190;16.366;2023-03-19T10:30:12;52.05;;;48.58;;
33644;SDS011;19986;48.190;16.366;2023-03-19T10:32:42;52.95;;;49.50;;
33644;SDS011;19986;48.190;16.366;2023-03-19T10:35:15;53.92;;;50.33;;
33644;SDS011;19986;48.190;16.366;2023-03-19T10:37:42;51.55;;;48.13;;
33644;SDS011;19986;48.190;16.366;2023-03-19T10:40:13;52.58;;;49.00;;
33644;SDS011;19986;48.190;16.366;2023-03-19T10:45:36;54.20;;;50.70;;
33644;SDS011;19986;48.190;16.366;2023-03-19T10:48:03;65.63;;;60.22;;
33644;SDS011;19986;48.190;16.366;2023-03-19T10:50:34;52.42;;;48.95;;
33644;SDS011;19986;48.190;16.366;2023-03-19T10:53:32;53.35;;;49.75;;
33644;SDS011;19986;48.190;16.366;2023-03-19T10:56:19;55.00;;;51.20;;
33644;SDS011;19986;48.190;16.366;2023-03-19T11:01:27;54.15;;;50.67;;
33644;SDS011;19986;48.190;16.366;2023-03-19T11:03:59;53.13;;;49.80;;
33644;SDS011;19986;48.190;16.366;2023-03-19T11:11:42;52.88;;;49.28;;
33644;SDS011;19986;48.190;16.366;2023-03-19T11:14:24;53.53;;;50.20;;
33644;SDS011;19986;48.190;16.366;2023-03-19T11:16:57;53.45;;;49.25;;
33644;SDS011;19986;48.190;16.366;2023-03-19T11:19:52;55.08;;;51.22;;
33644;SDS011;19986;48.190;16.366;2023-03-19T11:22:24;53.22;;;49.47;;
33644;SDS011;19986;48.190;16.366;2023-03-19T11:24:59;54.40;;;50.60;;
33644;SDS011;19986;48.190;16.366;2023-03-19T11:27:30;54.60;;;50.78;;
33644;SDS011;19986;48.190;16.366;2023-03-19T11:30:16;53.80;;;50.33;;
33644;SDS011;19986;48.190;16.366;2023-03-19T11:35:37;51.40;;;47.70;;
33644;SDS011;19986;48.190;16.366;2023-03-19T11:38:22;51.28;;;47.65;;
33644;SDS011;19986;48.190;16.366;2023-03-19T11:40:58;53.90;;;50.08;;
33644;SDS011;19986;48.190;16.366;2023-03-19T11:43:48;54.03;;;50.33;;
33644;SDS011;19986;48.190;16.366;2023-03-19T11:46:22;52.28;;;48.60;;
33644;SDS011;19986;48.190;16.366;2023-03-19T11:57:27;53.38;;;49.80;;
33644;SDS011;19986;48.190;16.366;2023-03-19T12:05:23;52.33;;;48.92;;
33644;SDS011;19986;48.190;16.366;2023-03-19T12:27:18;50.40;;;46.80;;
33644;SDS011;19986;48.190;16.366;2023-03-19T12:36:27;52.60;;;49.17;;
33644;SDS011;19986;48.190;16.366;2023-03-19T12:39:09;50.40;;;47.15;;
33644;SDS011;19986;48.190;16.366;2023-03-19T12:41:41;47.42;;;44.33;;
33644;SDS011;19986;48.190;16.366;2023-03-19T12:49:32;49.22;;;46.10;;
33644;SDS011;19986;48.190;16.366;2023-03-19T12:52:07;50.22;;;47.08;;
33644;SDS011;19986;48.190;16.366;2023-03-19T12:54:43;49.58;;;46.38;;
33644;SDS011;19986;48.190;16.366;2023-03-19T12:57:26;48.85;;;45.72;;
33644;SDS011;19986;48.190;16.366;2023-03-19T13:00:19;51.25;;;47.92;;
33644;SDS011;19986;48.190;16.366;2023-03-19T13:05:57;51.92;;;48.28;;
33644;SDS011;19986;48.190;16.366;2023-03-19T13:08:19;50.50;;;47.17;;
33644;SDS011;19986;48.190;16.366;2023-03-19T13:10:52;51.30;;;48.00;;
33644;SDS011;19986;48.190;16.366;2023-03-19T13:13:32;49.55;;;46.47;;
33644;SDS011;19986;48.190;16.366;2023-03-19T13:16:07;48.72;;;45.53;;
33644;SDS011;19986;48.190;16.366;2023-03-19T13:21:27;49.05;;;45.78;;
33644;SDS011;19986;48.190;16.366;2023-03-19T13:24:01;47.97;;;44.97;;
33644;SDS011;19986;48.190;16.366;2023-03-19T13:26:45;50.45;;;47.05;;
33644;SDS011;19986;48.190;16.366;2023-03-19T13:29:18;47.47;;;44.28;;
33644;SDS011;19986;48.190;16.366;2023-03-19T13:31:46;51.00;;;47.58;;
33644;SDS011;19986;48.190;16.366;2023-03-19T13:36:44;47.83;;;44.40;;
33644;SDS011;19986;48.190;16.366;2023-03-19T13:39:32;50.17;;;46.75;;
33644;SDS011;19986;48.190;16.366;2023-03-19T13:44:51;47.42;;;44.40;;
33644;SDS011;19986;48.190;16.366;2023-03-19T13:57:52;49.35;;;46.15;;
33644;SDS011;19986;48.190;16.366;2023-03-19T14:05:51;49.00;;;46.00;;
33644;SDS011;19986;48.190;16.366;2023-03-19T14:08:23;46.33;;;43.10;;
33644;SDS011;19986;48.190;16.366;2023-03-19T14:11:28;49.80;;;46.58;;
33644;SDS011;19986;48.190;16.366;2023-03-19T14:14:04;48.03;;;45.03;;
33644;SDS011;19986;48.190;16.366;2023-03-19T14:16:39;47.92;;;44.83;;
33644;SDS011;19986;48.190;16.366;2023-03-19T14:19:11;50.75;;;47.35;;
33644;SDS011;19986;48.190;16.366;2023-03-19T14:22:00;47.92;;;44.83;;
33644;SDS011;19986;48.190;16.366;2023-03-19T14:24:53;47.65;;;44.42;;
33644;SDS011;19986;48.190;16.366;2023-03-19T14:27:42;48.40;;;45.10;;
33644;SDS011;19986;48.190;16.366;2023-03-19T14:30:44;47.72;;;44.63;;
33644;SDS011;19986;48.190;16.366;2023-03-19T14:36:12;49.80;;;46.22;;
33644;SDS011;19986;48.190;16.366;2023-03-19T14:38:45;47.95;;;44.95;;
33644;SDS011;19986;48.190;16.366;2023-03-19T14:41:21;51.03;;;47.63;;
33644;SDS011;19986;48.190;16.366;2023-03-19T14:55:34;47.78;;;44.85;;
33644;SDS011;19986;48.190;16.366;2023-03-19T14:58:02;49.28;;;45.83;;
33644;SDS011;19986;48.190;16.366;2023-03-19T15:00:36;48.08;;;44.78;;
33644;SDS011;19986;48.190;16.366;2023-03-19T15:03:30;49.28;;;46.03;;
33644;SDS011;19986;48.190;16.366;2023-03-19T15:06:04;49.80;;;45.72;;
33644;SDS011;19986;48.190;16.366;2023-03-19T15:08:35;48.30;;;44.90;;
33644;SDS011;19986;48.190;16.366;2023-03-19T15:16:51;48.70;;;45.30;;
33644;SDS011;19986;48.190;16.366;2023-03-19T15:19:33;50.92;;;46.95;;
33644;SDS011;19986;48.190;16.366;2023-03-19T15:22:13;47.30;;;44.20;;
33644;SDS011;19986;48.190;16.366;2023-03-19T15:24:44;48.88;;;45.17;;
33644;SDS011;19986;48.190;16.366;2023-03-19T15:27:20;48.78;;;45.05;;
33644;SDS011;19986;48.190;16.366;2023-03-19T15:29:49;48.60;;;45.42;;
33644;SDS011;19986;48.190;16.366;2023-03-19T15:35:05;48.88;;;45.67;;
33644;SDS011;19986;48.190;16.366;2023-03-19T15:37:39;49.58;;;46.30;;
33644;SDS011;19986;48.190;16.366;2023-03-19T15:40:09;47.53;;;44.38;;
33644;SDS011;19986;48.190;16.366;2023-03-19T15:42:38;48.42;;;45.22;;
33644;SDS011;19986;48.190;16.366;2023-03-19T15:45:08;47.90;;;44.72;;
33644;SDS011;19986;48.190;16.366;2023-03-19T15:50:55;48.80;;;45.17;;
33644;SDS011;19986;48.190;16.366;2023-03-19T15:53:24;46.47;;;43.47;;
33644;SDS011;19986;48.190;16.366;2023-03-19T15:55:53;47.50;;;44.05;;
33644;SDS011;19986;48.190;16.366;2023-03-19T15:58:20;48.85;;;45.55;;
33644;SDS011;19986;48.190;16.366;2023-03-19T16:00:52;46.55;;;43.35;;
33644;SDS011;19986;48.190;16.366;2023-03-19T16:03:21;50.20;;;46.85;;
33644;SDS011;19986;48.190;16.366;2023-03-19T16:06:02;49.70;;;46.42;;
33644;SDS011;19986;48.190;16.366;2023-03-19T16:08:34;49.55;;;46.38;;
33644;SDS011;19986;48.190;16.366;2023-03-19T16:11:14;47.53;;;44.33;;
33644;SDS011;19986;48.190;16.366;2023-03-19T16:13:57;47.13;;;43.92;;
33644;SDS011;19986;48.190;16.366;2023-03-19T16:16:28;48.70;;;45.22;;
33644;SDS011;19986;48.190;16.366;2023-03-19T16:18:56;46.38;;;43.45;;
33644;SDS011;19986;48.190;16.366;2023-03-19T16:23:59;46.00;;;43.10;;
33644;SDS011;19986;48.190;16.366;2023-03-19T16:31:50;52.75;;;48.83;;
33644;SDS011;19986;48.190;16.366;2023-03-19T16:37:22;52.25;;;48.78;;
33644;SDS011;19986;48.190;16.366;2023-03-19T16:39:56;48.88;;;45.03;;